Time;durP1;ratioP1;P1;durP2;ratioP2;P2;SDS_P1;SDS_P2;PMS_P1;PMS_P2;Temp;Humidity;BMP_temperature;BMP_pressure;BME280_temperature;BME280_humidity;BME280_pressure;Samples;Min_cycle;Max_cycle;Signal;HPM_P1;HPM_P2
2022/05/09 00:01:39;;;;;;;2.63;1.30;;;5.80;99.90;;;;;;5113571;27;20049;-79
2022/05/09 00:04:05;;;;;;;2.95;1.20;;;5.80;99.90;;;;;;5147134;27;20125;-79
2022/05/09 00:06:31;;;;;;;2.85;1.10;;;5.70;99.90;;;;;;5144768;27;20119;-79
2022/05/09 00:08:56;;;;;;;2.83;1.20;;;5.70;99.90;;;;;;5130995;27;20111;-79
2022/05/09 00:11:22;;;;;;;2.65;1.15;;;5.70;99.90;;;;;;5134358;27;20047;-79
2022/05/09 00:13:48;;;;;;;2.70;1.00;;;5.60;99.90;;;;;;5150438;27;20043;-79
2022/05/09 00:16:14;;;;;;;3.10;0.95;;;5.60;99.90;;;;;;5145916;27;20039;-79
2022/05/09 00:18:39;;;;;;;1.80;0.80;;;5.60;99.90;;;;;;5142157;27;20380;-79
2022/05/09 00:21:05;;;;;;;2.05;0.88;;;5.50;99.90;;;;;;5143956;27;20046;-79
2022/05/09 00:23:31;;;;;;;2.13;0.80;;;5.50;99.90;;;;;;5100173;27;20035;-79
2022/05/09 00:25:57;;;;;;;1.70;0.73;;;5.50;99.90;;;;;;5113081;27;20035;-79
2022/05/09 00:28:23;;;;;;;1.30;0.70;;;5.50;99.90;;;;;;5136457;27;20045;-79
2022/05/09 00:30:49;;;;;;;3.00;1.10;;;5.50;99.90;;;;;;5148891;27;20091;-79
2022/05/09 00:33:14;;;;;;;1.27;0.70;;;5.40;99.90;;;;;;5132397;27;20043;-79
2022/05/09 00:35:44;;;;;;;1.55;0.75;;;5.40;99.90;;;;;;5123145;27;20122;-79
2022/05/09 00:38:10;;;;;;;2.00;0.70;;;5.40;99.90;;;;;;5151038;27;20078;-79
2022/05/09 00:40:36;;;;;;;1.90;0.93;;;5.40;99.90;;;;;;5137369;27;20043;-78
2022/05/09 00:43:02;;;;;;;1.15;0.52;;;5.40;99.90;;;;;;5139203;27;20149;-79
2022/05/09 00:45:28;;;;;;;1.55;0.70;;;5.40;99.90;;;;;;5148282;27;20509;-79
2022/05/09 00:47:54;;;;;;;0.88;0.50;;;5.50;99.90;;;;;;5124092;27;20082;-79
2022/05/09 00:50:28;;;;;;;1.85;0.80;;;5.50;99.90;;;;;;5124806;27;20055;-78
2022/05/09 00:52:59;;;;;;;2.40;0.60;;;5.50;99.90;;;;;;5148735;27;20053;-79
2022/05/09 00:55:35;;;;;;;1.95;0.75;;;5.60;99.90;;;;;;5136637;27;20043;-79
2022/05/09 00:58:15;;;;;;;4.53;1.00;;;5.60;99.90;;;;;;5147174;27;20046;-78
2022/05/09 01:00:44;;;;;;;2.63;0.73;;;5.60;99.90;;;;;;5140842;27;20039;-79
2022/05/09 01:03:13;;;;;;;3.50;1.17;;;5.70;99.90;;;;;;5157422;27;20390;-78
2022/05/09 01:05:42;;;;;;;2.28;0.85;;;5.70;99.90;;;;;;5157526;27;20114;-78
2022/05/09 01:08:08;;;;;;;1.25;0.70;;;5.70;99.90;;;;;;5140321;27;20041;-79
2022/05/09 01:10:38;;;;;;;2.92;1.10;;;5.70;99.90;;;;;;5142926;27;20436;-79
2022/05/09 01:13:08;;;;;;;2.47;0.80;;;5.70;99.90;;;;;;5152323;27;20114;-78
2022/05/09 01:15:34;;;;;;;1.63;0.90;;;5.70;99.90;;;;;;5140275;27;20046;-79
2022/05/09 01:18:03;;;;;;;2.88;0.80;;;5.70;99.90;;;;;;5149957;27;20091;-78
2022/05/09 01:20:29;;;;;;;1.77;0.70;;;5.70;99.90;;;;;;5136486;27;20081;-73
2022/05/09 01:22:57;;;;;;;1.08;0.57;;;5.60;99.90;;;;;;5114134;27;20128;-73
2022/05/09 01:25:23;;;;;;;1.10;0.50;;;5.60;99.90;;;;;;5149622;27;20043;-73
2022/05/09 01:27:49;;;;;;;0.80;0.50;;;5.50;99.90;;;;;;5130809;27;20059;-73
2022/05/09 01:30:26;;;;;;;1.52;0.50;;;5.50;99.90;;;;;;5145558;27;20076;-73
2022/05/09 01:32:56;;;;;;;0.93;0.50;;;5.50;99.90;;;;;;5129935;27;20040;-73
2022/05/09 01:35:34;;;;;;;0.73;0.47;;;5.50;99.90;;;;;;5141368;27;20050;-73
2022/05/09 01:38:29;;;;;;;2.13;0.85;;;5.50;99.90;;;;;;5129979;28;20043;-73
2022/05/09 01:40:54;;;;;;;1.00;0.63;;;5.50;99.90;;;;;;5141757;27;20115;-73
2022/05/09 01:43:51;;;;;;;1.15;0.68;;;5.50;99.90;;;;;;5148301;27;20051;-73
2022/05/09 01:46:26;;;;;;;1.73;0.70;;;5.40;99.90;;;;;;5129109;27;20031;-73
2022/05/09 01:51:39;;;;;;;1.17;0.50;;;5.30;99.90;;;;;;5150006;27;20566;-73
2022/05/09 01:54:06;;;;;;;1.40;0.50;;;5.30;99.90;;;;;;5139106;27;20043;-73
2022/05/09 01:56:35;;;;;;;1.23;0.50;;;5.30;99.90;;;;;;5130918;27;20134;-73
2022/05/09 01:59:02;;;;;;;1.75;0.50;;;5.30;99.90;;;;;;5120272;27;20074;-74
2022/05/09 02:01:34;;;;;;;1.08;0.60;;;5.20;99.90;;;;;;5135088;27;20484;-73
2022/05/09 02:03:59;;;;;;;1.48;0.73;;;5.20;99.90;;;;;;5134093;27;20047;-73
2022/05/09 02:06:25;;;;;;;0.57;0.32;;;5.20;99.90;;;;;;5144595;27;20041;-73
2022/05/09 02:08:51;;;;;;;1.52;0.50;;;5.10;99.90;;;;;;5145538;27;20043;-73
2022/05/09 02:11:17;;;;;;;0.98;0.45;;;5.10;99.90;;;;;;5152843;27;20050;-73
2022/05/09 02:13:42;;;;;;;1.23;0.43;;;5.00;99.90;;;;;;5126135;27;20389;-73
2022/05/09 02:16:09;;;;;;;1.00;0.50;;;5.00;99.90;;;;;;5152209;27;20053;-73
2022/05/09 02:18:35;;;;;;;0.95;0.45;;;5.00;99.90;;;;;;5149505;27;20039;-73
2022/05/09 02:21:02;;;;;;;1.98;0.70;;;5.00;99.90;;;;;;5137505;27;20486;-73
2022/05/09 02:23:27;;;;;;;0.90;0.50;;;5.00;99.90;;;;;;5149757;27;20031;-78
2022/05/09 02:25:53;;;;;;;1.60;0.60;;;5.00;99.90;;;;;;5152085;27;20050;-78
2022/05/09 02:28:21;;;;;;;1.50;0.60;;;5.00;99.90;;;;;;5153288;27;20295;-78
2022/05/09 02:30:47;;;;;;;1.33;0.52;;;5.00;99.90;;;;;;5142009;27;20057;-78
2022/05/09 02:33:13;;;;;;;1.00;0.50;;;4.90;99.90;;;;;;5137023;27;20031;-79
2022/05/09 02:35:40;;;;;;;;;;;5.00;99.90;;;;;;5119564;27;20366;-78
2022/05/09 02:38:06;;;;;;;3.53;0.75;;;5.00;99.90;;;;;;5115972;27;20022;-78
2022/05/09 02:40:33;;;;;;;1.30;0.50;;;4.90;99.90;;;;;;5138112;27;20034;-78
2022/05/09 02:43:00;;;;;;;2.40;0.65;;;5.00;99.90;;;;;;5115475;27;20219;-78
2022/05/09 02:45:27;;;;;;;1.05;0.55;;;4.90;99.90;;;;;;5148862;27;20042;-78
2022/05/09 02:47:53;;;;;;;1.52;0.52;;;4.80;99.90;;;;;;5151136;27;20473;-79
2022/05/09 02:50:23;;;;;;;0.75;0.50;;;4.80;99.90;;;;;;5145745;27;20050;-78
2022/05/09 02:52:50;;;;;;;1.02;0.40;;;4.80;99.90;;;;;;5131595;27;20063;-79
2022/05/09 02:55:16;;;;;;;1.17;0.55;;;4.80;99.90;;;;;;5132510;27;20042;-78
2022/05/09 02:57:42;;;;;;;1.83;0.70;;;4.80;99.90;;;;;;5139505;27;20050;-78
2022/05/09 03:00:18;;;;;;;2.22;0.80;;;4.80;99.90;;;;;;5125408;27;20075;-78
2022/05/09 03:04:38;;;;;;;1.13;0.50;;;4.80;99.90;;;;;;5123220;27;20039;-79
2022/05/09 03:05:31;;;;;;;1.30;0.65;;;4.70;99.90;;;;;;5134916;27;20417;-79
2022/05/09 03:07:57;;;;;;;1.75;0.70;;;4.70;99.90;;;;;;5126605;27;20076;-79
2022/05/09 03:10:23;;;;;;;0.50;0.40;;;4.70;99.90;;;;;;5142535;27;20047;-78
2022/05/09 03:12:50;;;;;;;0.40;0.40;;;4.70;99.90;;;;;;5151635;27;20133;-79
2022/05/09 03:15:17;;;;;;;1.13;0.60;;;4.70;99.90;;;;;;5145797;27;20110;-78
2022/05/09 03:17:43;;;;;;;0.60;0.40;;;4.70;99.90;;;;;;5119360;27;20110;-79
2022/05/09 03:20:09;;;;;;;1.35;0.50;;;4.60;99.90;;;;;;5116748;27;20131;-78
2022/05/09 03:22:35;;;;;;;;;;;4.60;99.90;;;;;;5151524;27;20460;-78
2022/05/09 03:25:01;;;;;;;0.88;0.52;;;4.60;99.90;;;;;;5134241;27;19922;-79
2022/05/09 03:27:26;;;;;;;1.15;0.50;;;4.60;99.90;;;;;;5115141;27;20425;-78
2022/05/09 03:29:52;;;;;;;1.42;0.52;;;4.60;99.90;;;;;;5116343;27;20039;-78
2022/05/09 03:32:18;;;;;;;2.72;0.85;;;4.60;99.90;;;;;;5131662;27;20043;-78
2022/05/09 03:34:46;;;;;;;1.17;0.65;;;4.60;99.90;;;;;;5143710;27;20545;-78
2022/05/09 03:37:12;;;;;;;1.23;0.60;;;4.60;99.90;;;;;;5142109;27;20078;-78
2022/05/09 03:39:38;;;;;;;0.93;0.60;;;4.50;99.90;;;;;;5136524;27;20081;-78
2022/05/09 03:42:06;;;;;;;0.43;0.40;;;4.50;99.90;;;;;;5114071;27;20391;-78
2022/05/09 03:44:32;;;;;;;1.30;0.50;;;4.50;99.90;;;;;;5122473;27;20046;-78
2022/05/09 03:46:58;;;;;;;0.90;0.60;;;4.50;99.90;;;;;;5137097;27;20091;-78
2022/05/09 03:49:24;;;;;;;1.00;0.50;;;4.50;99.90;;;;;;5130791;27;20122;-79
2022/05/09 03:51:50;;;;;;;1.33;0.60;;;4.50;99.90;;;;;;5141633;27;20055;-79
2022/05/09 03:54:16;;;;;;;1.55;0.70;;;4.40;99.90;;;;;;5141002;27;20043;-78
2022/05/09 03:56:42;;;;;;;3.22;0.95;;;4.50;99.90;;;;;;5150530;27;20042;-78
2022/05/09 03:59:08;;;;;;;0.98;0.47;;;4.50;99.90;;;;;;5139619;27;20087;-78
2022/05/09 04:01:34;;;;;;;1.00;0.60;;;4.50;99.90;;;;;;5142747;27;20074;-80
2022/05/09 04:04:01;;;;;;;1.67;0.77;;;4.50;99.90;;;;;;5114117;27;20121;-78
2022/05/09 04:06:26;;;;;;;;;;;4.50;99.90;;;;;;5137535;27;20038;-78
2022/05/09 04:08:52;;;;;;;1.35;0.60;;;4.40;99.90;;;;;;5144782;27;19919;-78
2022/05/09 04:11:18;;;;;;;0.70;0.50;;;4.40;99.90;;;;;;5131265;27;20046;-78
2022/05/09 04:13:45;;;;;;;1.25;0.60;;;4.40;99.90;;;;;;5145689;27;20088;-78
2022/05/09 04:18:59;;;;;;;1.35;0.60;;;4.40;99.90;;;;;;5144291;27;20172;-79
2022/05/09 04:21:26;;;;;;;1.10;0.60;;;4.50;99.90;;;;;;5120915;27;20362;-79
2022/05/09 04:23:56;;;;;;;0.85;0.55;;;4.50;99.90;;;;;;5113983;27;20047;-79
2022/05/09 04:26:23;;;;;;;1.88;0.68;;;4.50;99.90;;;;;;5132657;27;20129;-79
2022/05/09 04:28:49;;;;;;;1.38;0.70;;;4.50;99.90;;;;;;5146370;27;20107;-79
2022/05/09 04:31:15;;;;;;;1.60;0.38;;;4.50;99.90;;;;;;5140047;27;21056;-79
2022/05/09 04:33:42;;;;;;;0.85;0.55;;;4.60;99.90;;;;;;5147162;27;20046;-78
2022/05/09 04:36:08;;;;;;;1.45;0.60;;;4.60;99.90;;;;;;5116788;27;20494;-78
2022/05/09 04:38:35;;;;;;;0.50;0.50;;;4.60;99.90;;;;;;5141770;27;20046;-78
2022/05/09 04:41:02;;;;;;;1.05;0.40;;;4.70;99.90;;;;;;5141616;27;20030;-79
2022/05/09 04:43:28;;;;;;;;;;;4.80;99.90;;;;;;5163643;27;20049;-78
2022/05/09 04:45:54;;;;;;;1.25;0.60;;;4.80;99.90;;;;;;5128513;27;19919;-78
2022/05/09 04:48:21;;;;;;;1.02;0.60;;;4.80;99.90;;;;;;5143811;27;20126;-79
2022/05/09 04:50:47;;;;;;;0.90;0.50;;;4.90;99.90;;;;;;5130010;27;20047;-78
2022/05/09 04:53:13;;;;;;;0.40;0.40;;;4.90;99.90;;;;;;5111587;27;20444;-78
2022/05/09 04:55:39;;;;;;;0.98;0.40;;;5.00;99.90;;;;;;5137754;27;20039;-77
2022/05/09 04:58:05;;;;;;;0.98;0.43;;;5.10;99.90;;;;;;5116466;27;20494;-78
2022/05/09 05:00:31;;;;;;;1.30;0.60;;;5.20;99.90;;;;;;5133231;27;20122;-78
2022/05/09 05:02:57;;;;;;;0.90;0.70;;;5.40;99.90;;;;;;5145179;27;20077;-78
2022/05/09 05:05:25;;;;;;;3.22;1.50;;;5.50;99.90;;;;;;5103000;27;20035;-78
2022/05/09 05:07:52;;;;;;;2.60;1.10;;;5.80;99.90;;;;;;5130681;27;20045;-78
2022/05/09 05:10:18;;;;;;;3.67;1.52;;;5.90;99.90;;;;;;5148076;27;20078;-78
2022/05/09 05:12:44;;;;;;;;;;;6.10;99.90;;;;;;5114828;27;20035;-78
2022/05/09 05:15:10;;;;;;;11.50;3.30;;;6.30;99.90;;;;;;5138582;27;20397;-77
2022/05/09 05:17:37;;;;;;;7.60;3.15;;;6.40;99.90;;;;;;5137686;27;20034;-78
2022/05/09 05:20:09;;;;;;;8.85;3.20;;;6.70;99.90;;;;;;5132746;27;20043;-78
2022/05/09 05:22:41;;;;;;;7.82;3.40;;;6.80;99.90;;;;;;5119615;27;20533;-77
2022/05/09 05:25:09;;;;;;;7.38;2.85;;;7.00;99.90;;;;;;5140958;27;20073;-77
2022/05/09 05:27:35;;;;;;;7.55;2.53;;;7.10;99.90;;;;;;5138465;27;20484;-79
2022/05/09 05:30:01;;;;;;;8.05;2.35;;;7.20;99.90;;;;;;5146966;27;20039;-77
2022/05/09 05:32:31;;;;;;;4.20;1.90;;;7.40;99.90;;;;;;5171452;27;20109;-76
2022/05/09 05:34:57;;;;;;;6.03;2.15;;;7.50;99.90;;;;;;5145004;27;20114;-77
2022/05/09 05:37:22;;;;;;;5.75;2.13;;;7.60;99.90;;;;;;5147718;27;20039;-78
2022/05/09 05:39:48;;;;;;;7.95;2.90;;;7.70;99.90;;;;;;5169203;27;20051;-78
2022/05/09 05:42:17;;;;;;;6.80;2.90;;;7.80;99.90;;;;;;5130661;27;20050;-71
2022/05/09 05:44:44;;;;;;;9.50;3.25;;;7.90;99.90;;;;;;5138645;27;20041;-71
2022/05/09 05:47:12;;;;;;;11.80;3.70;;;8.00;99.90;;;;;;5133578;27;20637;-72
2022/05/09 05:49:39;;;;;;;9.55;3.30;;;8.10;99.90;;;;;;5154215;27;20113;-71
2022/05/09 05:52:06;;;;;;;7.15;3.08;;;8.30;99.90;;;;;;5151405;27;20464;-71
2022/05/09 05:54:34;;;;;;;12.45;4.28;;;8.40;99.90;;;;;;5121429;27;20058;-72
2022/05/09 05:57:01;;;;;;;10.25;3.38;;;8.60;99.90;;;;;;5137476;27;20031;-72
2022/05/09 05:59:27;;;;;;;5.50;2.55;;;8.80;99.90;;;;;;5142778;27;20400;-72
2022/05/09 06:01:53;;;;;;;9.45;3.47;;;8.90;99.90;;;;;;5153840;27;20034;-72
2022/05/09 06:04:20;;;;;;;12.93;4.30;;;9.00;99.90;;;;;;5154045;27;20050;-73
2022/05/09 06:06:46;;;;;;;8.35;3.30;;;9.20;99.90;;;;;;5154132;27;20042;-72
2022/05/09 06:09:12;;;;;;;9.38;3.40;;;9.60;99.90;;;;;;5153658;27;20054;-72
2022/05/09 06:11:40;;;;;;;9.52;3.45;;;10.20;99.90;;;;;;5153693;27;20253;-72
2022/05/09 06:14:14;;;;;;;8.02;3.13;;;10.70;99.90;;;;;;5136227;27;20047;-74
2022/05/09 06:16:40;;;;;;;9.88;3.17;;;11.20;99.90;;;;;;5150469;27;20039;-73
2022/05/09 06:19:08;;;;;;;8.27;3.10;;;11.50;99.90;;;;;;5136730;27;20041;-72
2022/05/09 06:21:35;;;;;;;10.60;3.40;;;11.70;99.90;;;;;;5141157;27;20039;-72
2022/05/09 06:24:04;;;;;;;8.35;3.15;;;11.70;99.90;;;;;;5147406;27;20107;-71
2022/05/09 06:26:30;;;;;;;6.05;2.40;;;11.50;99.90;;;;;;5153392;27;20143;-72
2022/05/09 06:28:56;;;;;;;5.63;2.40;;;11.30;99.90;;;;;;5153677;27;20126;-72
2022/05/09 06:31:22;;;;;;;7.68;2.50;;;11.20;99.90;;;;;;5155198;27;20118;-72
2022/05/09 06:33:47;;;;;;;7.68;2.65;;;11.20;99.90;;;;;;5154185;27;20049;-72
2022/05/09 06:36:13;;;;;;;11.10;3.88;;;11.20;99.90;;;;;;5136558;27;20046;-71
2022/05/09 06:38:39;;;;;;;9.43;3.00;;;11.10;99.90;;;;;;5153585;27;20053;-72
2022/05/09 06:41:07;;;;;;;8.48;3.20;;;11.20;99.90;;;;;;5154047;27;20042;-72
2022/05/09 06:43:33;;;;;;;7.35;2.95;;;11.20;99.90;;;;;;5152663;27;20074;-72
2022/05/09 06:46:00;;;;;;;6.53;2.55;;;11.40;99.90;;;;;;5153377;27;20392;-72
2022/05/09 06:48:25;;;;;;;7.60;2.67;;;11.60;99.90;;;;;;5153658;27;20549;-72
2022/05/09 06:50:51;;;;;;;6.00;2.55;;;11.70;99.90;;;;;;5153187;27;20047;-71
2022/05/09 06:53:17;;;;;;;8.30;3.10;;;11.90;99.90;;;;;;5153472;27;20082;-71
2022/05/09 06:55:44;;;;;;;6.60;2.80;;;12.00;99.90;;;;;;5153425;27;20049;-72
2022/05/09 06:58:12;;;;;;;6.18;2.85;;;12.20;99.90;;;;;;5136074;27;20047;-72
2022/05/09 07:00:38;;;;;;;6.10;2.70;;;12.40;99.90;;;;;;5153600;27;20473;-72
2022/05/09 07:03:05;;;;;;;7.68;2.97;;;12.60;99.90;;;;;;5153825;27;20046;-72
2022/05/09 07:05:31;;;;;;;7.45;2.58;;;12.80;99.90;;;;;;5153574;27;20171;-71
2022/05/09 07:07:57;;;;;;;7.15;2.40;;;13.20;99.90;;;;;;5153457;27;20379;-72
2022/05/09 07:10:26;;;;;;;7.82;2.80;;;13.40;99.90;;;;;;5153362;27;20049;-73
2022/05/09 07:12:54;;;;;;;6.32;2.53;;;13.60;99.90;;;;;;5143528;27;20043;-72
2022/05/09 07:15:25;;;;;;;6.78;2.72;;;13.90;99.90;;;;;;5133044;27;20039;-71
2022/05/09 07:17:52;;;;;;;5.47;2.10;;;14.30;99.90;;;;;;5142704;27;20038;-71
2022/05/09 07:20:20;;;;;;;8.80;2.67;;;14.80;99.90;;;;;;5128666;27;20043;-71
2022/05/09 07:22:50;;;;;;;7.60;2.20;;;15.20;99.90;;;;;;5125917;27;20873;-71
2022/05/09 07:25:17;;;;;;;5.45;2.20;;;15.30;99.90;;;;;;5137506;27;20046;-71
2022/05/09 07:27:43;;;;;;;7.22;2.40;;;15.40;99.90;;;;;;5147530;27;20130;-71
2022/05/09 07:30:14;;;;;;;3.90;1.73;;;15.30;99.90;;;;;;5161396;27;20078;-71
2022/05/09 07:32:40;;;;;;;5.57;2.13;;;15.30;99.90;;;;;;5158975;27;20098;-71
2022/05/09 07:35:09;;;;;;;4.20;1.80;;;15.50;99.90;;;;;;5132509;27;20030;-72
2022/05/09 07:37:35;;;;;;;4.35;2.08;;;15.50;99.90;;;;;;5152524;27;20053;-71
2022/05/09 07:40:00;;;;;;;5.70;2.03;;;15.60;99.90;;;;;;5150728;27;20125;-71
2022/05/09 07:42:27;;;;;;;5.82;2.08;;;15.70;99.90;;;;;;5132965;27;20042;-72
2022/05/09 07:44:56;;;;;;;6.05;2.22;;;15.70;99.90;;;;;;5142647;27;20039;-72
2022/05/09 07:47:22;;;;;;;5.90;1.88;;;15.70;99.90;;;;;;5113284;27;20089;-71
2022/05/09 07:49:48;;;;;;;4.32;1.73;;;15.80;99.90;;;;;;5118795;27;20049;-71
2022/05/09 07:52:13;;;;;;;5.93;2.00;;;16.00;99.90;;;;;;5152243;27;20050;-72
2022/05/09 07:54:39;;;;;;;6.20;1.88;;;16.30;99.90;;;;;;5130817;27;20471;-71
2022/05/09 07:57:05;;;;;;;6.25;1.88;;;16.50;99.90;;;;;;5133120;27;20045;-71
2022/05/09 07:59:31;;;;;;;6.05;2.08;;;16.70;99.90;;;;;;5116552;27;20126;-72
2022/05/09 08:01:56;;;;;;;5.00;1.92;;;16.90;99.40;;;;;;5143326;27;20059;-72
2022/05/09 08:04:23;;;;;;;3.55;1.30;;;17.30;99.10;;;;;;5139074;27;20053;-72
2022/05/09 08:06:49;;;;;;;4.43;1.65;;;17.70;98.10;;;;;;5134931;27;20138;-72
2022/05/09 08:09:15;;;;;;;4.55;1.50;;;17.90;97.50;;;;;;5150129;27;20102;-72
2022/05/09 08:11:41;;;;;;;5.80;2.13;;;18.00;96.20;;;;;;5151668;27;20050;-72
2022/05/09 08:14:07;;;;;;;3.20;1.30;;;18.00;96.20;;;;;;5152222;27;20043;-72
2022/05/09 08:16:34;;;;;;;4.63;1.50;;;18.20;95.10;;;;;;5152071;27;20169;-72
2022/05/09 08:19:02;;;;;;;3.83;1.73;;;18.30;95.40;;;;;;5152001;27;20046;-72
2022/05/09 08:21:29;;;;;;;3.00;1.45;;;18.50;94.60;;;;;;5151732;27;20053;-73
2022/05/09 08:23:56;;;;;;;3.88;1.52;;;18.50;95.30;;;;;;5152285;27;20485;-72
2022/05/09 08:26:22;;;;;;;6.18;2.00;;;18.50;94.70;;;;;;5152079;27;20099;-72
2022/05/09 08:28:49;;;;;;;7.38;2.08;;;18.20;93.90;;;;;;5152240;27;20415;-72
2022/05/09 08:31:18;;;;;;;3.08;1.58;;;18.00;94.30;;;;;;5151700;27;20512;-72
2022/05/09 08:33:49;;;;;;;4.95;1.70;;;18.20;94.30;;;;;;5152086;27;20439;-72
2022/05/09 08:37:01;;;;;;;4.20;1.60;;;18.30;97.50;;;;;;5152110;27;20461;-73
2022/05/09 08:39:02;;;;;;;3.88;1.60;;;18.40;94.30;;;;;;5137210;27;20051;-72
2022/05/09 08:41:30;;;;;;;;;;;18.30;97.40;;;;;;5134707;27;20175;-72
2022/05/09 08:44:07;;;;;;;3.53;1.50;;;18.20;94.00;;;;;;5151683;27;19914;-71
2022/05/09 08:47:11;;;;;;;4.88;1.80;;;18.20;92.90;;;;;;5151545;27;20085;-71
2022/05/09 08:49:52;;;;;;;6.28;2.03;;;18.10;92.70;;;;;;5151709;27;20488;-72
2022/05/09 08:52:33;;;;;;;5.13;1.90;;;18.30;93.40;;;;;;5151009;27;20133;-72
2022/05/09 08:54:59;;;;;;;4.38;1.65;;;18.20;92.30;;;;;;5151134;27;20042;-73
2022/05/09 08:57:34;;;;;;;;;;;18.20;93.10;;;;;;5152022;27;20034;-72
2022/05/09 09:00:10;;;;;;;6.80;2.00;;;18.10;92.40;;;;;;5151366;27;19919;-72
2022/05/09 09:02:43;;;;;;;3.33;1.50;;;18.00;91.80;;;;;;5151733;27;20549;-72
2022/05/09 09:05:12;;;;;;;5.38;1.80;;;18.40;92.60;;;;;;5150985;27;20161;-72
2022/05/09 09:08:05;;;;;;;3.45;1.38;;;18.80;91.40;;;;;;5134253;27;20489;-72
2022/05/09 09:10:34;;;;;;;5.18;1.90;;;19.00;91.00;;;;;;5151467;27;20473;-73
2022/05/09 09:13:08;;;;;;;4.82;1.70;;;19.00;89.00;;;;;;5151139;27;20051;-73
2022/05/09 09:16:17;;;;;;;4.20;1.27;;;19.00;83.80;;;;;;5151290;27;20050;-73
2022/05/09 09:18:59;;;;;;;4.28;1.42;;;19.60;81.80;;;;;;5051911;28;20040;-72
2022/05/09 09:21:39;;;;;;;4.13;1.38;;;20.10;76.40;;;;;;5051646;28;20098;-71
2022/05/09 09:24:25;;;;;;;3.25;1.30;;;20.40;76.90;;;;;;5117537;27;20050;-72
2022/05/09 09:27:06;;;;;;;4.13;1.30;;;20.80;76.70;;;;;;5133953;27;20038;-74
2022/05/09 09:29:37;;;;;;;6.47;1.63;;;21.10;75.30;;;;;;5151155;27;20042;-72
2022/05/09 09:32:15;;;;;;;4.10;1.45;;;21.20;80.20;;;;;;5151209;27;20047;-72
2022/05/09 09:35:10;;;;;;;2.28;1.10;;;21.20;76.90;;;;;;5151230;27;20070;-72
2022/05/09 09:37:55;;;;;;;5.90;1.60;;;21.40;70.30;;;;;;5151491;27;20419;-72
2022/05/09 09:40:21;;;;;;;5.30;1.35;;;21.30;72.50;;;;;;5134198;27;20387;-72
2022/05/09 09:42:51;;;;;;;3.53;1.13;;;21.40;68.00;;;;;;5134029;27;20047;-71
2022/05/09 09:45:40;;;;;;;5.85;1.92;;;21.50;67.10;;;;;;5151208;27;20493;-72
2022/05/09 09:48:17;;;;;;;3.45;1.50;;;21.50;65.40;;;;;;5151196;27;20069;-72
2022/05/09 09:50:54;;;;;;;3.40;1.27;;;21.70;63.40;;;;;;5146672;27;20194;-72
2022/05/09 09:53:28;;;;;;;;;;;21.90;66.00;;;;;;5129944;27;20630;-72
2022/05/09 09:56:07;;;;;;;4.05;1.40;;;22.00;65.70;;;;;;5130456;28;19919;-72
2022/05/09 09:58:34;;;;;;;4.60;1.60;;;21.90;63.30;;;;;;5130073;27;20065;-72
2022/05/09 10:01:21;;;;;;;4.95;2.00;;;21.70;61.60;;;;;;5130383;27;20039;-72
2022/05/09 10:04:02;;;;;;;6.18;1.67;;;21.60;65.10;;;;;;5130653;28;20043;-72
2022/05/09 10:06:28;;;;;;;4.43;1.40;;;21.70;64.50;;;;;;5130519;27;20039;-72
2022/05/09 10:09:03;;;;;;;7.10;1.70;;;22.00;63.00;;;;;;5130405;27;20043;-72
2022/05/09 10:11:31;;;;;;;6.33;1.80;;;22.00;62.30;;;;;;5129885;27;20043;-72
2022/05/09 10:14:03;;;;;;;4.15;1.40;;;22.00;61.20;;;;;;5128726;27;20273;-72
2022/05/09 10:16:48;;;;;;;5.43;1.60;;;22.10;62.40;;;;;;5128991;27;20077;-72
2022/05/09 10:19:31;;;;;;;3.67;1.45;;;22.30;60.30;;;;;;5117602;27;20050;-72
2022/05/09 10:24:48;;;;;;;6.20;1.70;;;22.10;60.80;;;;;;5133661;27;20058;-71
2022/05/09 10:27:20;;;;;;;4.97;1.50;;;21.70;59.20;;;;;;5133574;27;20087;-72
2022/05/09 10:29:48;;;;;;;3.35;1.15;;;22.00;58.90;;;;;;5133726;27;20039;-72
2022/05/09 10:32:20;;;;;;;3.75;1.30;;;22.50;60.30;;;;;;5144192;27;20046;-72
2022/05/09 10:34:58;;;;;;;5.00;1.60;;;22.80;58.60;;;;;;5153359;27;20037;-72
2022/05/09 10:37:43;;;;;;;5.38;1.60;;;22.80;56.70;;;;;;5152737;27;20477;-71
2022/05/09 10:40:25;;;;;;;3.65;1.30;;;23.00;56.80;;;;;;5154253;27;20069;-72
2022/05/09 10:43:21;;;;;;;3.70;1.50;;;23.20;57.60;;;;;;5137013;27;20343;-71
2022/05/09 10:45:51;;;;;;;3.65;1.58;;;22.90;56.50;;;;;;5125421;27;20055;-72
2022/05/09 10:48:34;;;;;;;3.92;1.60;;;22.90;56.50;;;;;;5133319;27;20051;-72
2022/05/09 10:51:32;;;;;;;3.13;1.30;;;23.10;58.10;;;;;;5132317;27;20051;-73
2022/05/09 10:54:24;;;;;;;4.85;1.42;;;23.30;56.40;;;;;;5115758;27;20512;-71
2022/05/09 10:56:57;;;;;;;4.22;1.63;;;23.50;59.20;;;;;;5134751;27;20420;-71
2022/05/09 10:59:28;;;;;;;1.95;1.20;;;23.70;59.10;;;;;;5131462;27;20511;-72
2022/05/09 11:02:17;;;;;;;5.10;1.65;;;24.00;57.80;;;;;;5130719;27;20498;-72
2022/05/09 11:04:43;;;;;;;5.28;2.00;;;23.90;56.50;;;;;;5132421;27;20136;-72
2022/05/09 11:07:23;;;;;;;6.32;1.80;;;24.00;57.90;;;;;;5132260;27;20047;-72
2022/05/09 11:09:54;;;;;;;4.80;1.67;;;24.00;57.30;;;;;;5132216;27;20148;-72
2022/05/09 11:12:29;;;;;;;3.78;1.50;;;23.80;56.30;;;;;;5132031;27;20143;-72
2022/05/09 11:15:14;;;;;;;4.13;1.65;;;24.00;57.20;;;;;;5132358;27;20406;-72
2022/05/09 11:17:51;;;;;;;7.07;2.33;;;24.10;58.10;;;;;;5132084;27;20050;-72
2022/05/09 11:20:30;;;;;;;6.47;2.03;;;23.80;57.60;;;;;;5115174;27;20075;-72
2022/05/09 11:23:02;;;;;;;5.47;2.05;;;23.50;56.40;;;;;;5147980;27;20068;-72
2022/05/09 11:25:52;;;;;;;5.63;1.98;;;23.50;56.20;;;;;;5152872;27;20050;-72
2022/05/09 11:28:24;;;;;;;4.47;1.77;;;23.20;58.00;;;;;;5152605;27;20465;-72
2022/05/09 11:31:05;;;;;;;4.07;1.50;;;23.20;56.50;;;;;;5152784;27;20035;-71
2022/05/09 11:33:41;;;;;;;7.28;2.10;;;23.40;57.70;;;;;;5153032;27;20038;-72
2022/05/09 11:36:34;;;;;;;4.45;1.55;;;23.70;56.10;;;;;;5152563;27;20528;-72
2022/05/09 11:39:35;;;;;;;3.75;1.60;;;24.00;55.60;;;;;;5152735;27;20082;-72
2022/05/09 11:45:17;;;;;;;3.13;1.30;;;24.20;56.50;;;;;;5152756;27;20397;-72
2022/05/09 11:48:20;;;;;;;4.07;1.48;;;24.50;56.20;;;;;;5152219;27;20047;-72
2022/05/09 11:50:57;;;;;;;3.70;1.40;;;24.60;55.40;;;;;;5152684;27;20035;-72
2022/05/09 11:53:28;;;;;;;4.25;1.58;;;24.70;55.10;;;;;;5151921;27;20073;-72
2022/05/09 11:55:54;;;;;;;3.92;1.40;;;24.80;55.50;;;;;;5152307;27;20375;-72
2022/05/09 11:58:21;;;;;;;4.22;1.60;;;24.60;54.50;;;;;;5152144;27;20034;-73
2022/05/09 12:00:50;;;;;;;4.28;1.50;;;24.70;55.10;;;;;;5151807;27;20058;-72
2022/05/09 12:03:38;;;;;;;6.00;1.85;;;24.80;55.20;;;;;;5152137;27;20050;-72
2022/05/09 12:06:06;;;;;;;3.80;1.35;;;24.70;54.10;;;;;;5151888;27;20049;-72
2022/05/09 12:08:46;;;;;;;4.38;1.70;;;24.70;53.70;;;;;;5135008;27;20038;-72
2022/05/09 12:11:41;;;;;;;4.80;1.60;;;24.60;53.60;;;;;;5134567;27;20057;-72
2022/05/09 12:14:07;;;;;;;3.28;1.20;;;24.20;54.20;;;;;;5113893;27;20063;-72
2022/05/09 12:16:36;;;;;;;6.10;1.55;;;24.40;55.00;;;;;;5131423;27;20561;-71
2022/05/09 12:19:04;;;;;;;3.70;1.25;;;24.40;53.50;;;;;;5131146;27;20043;-72
2022/05/09 12:21:37;;;;;;;1.70;0.93;;;24.70;53.60;;;;;;5131058;27;20050;-72
2022/05/09 12:24:15;;;;;;;5.53;1.52;;;25.00;53.50;;;;;;5114063;27;20047;-72
2022/05/09 12:26:46;;;;;;;3.92;1.10;;;24.60;52.60;;;;;;5130984;27;20031;-72
2022/05/09 12:29:12;;;;;;;4.18;1.33;;;24.80;52.10;;;;;;5131375;27;20039;-72
2022/05/09 12:31:42;;;;;;;3.70;1.23;;;24.90;52.80;;;;;;5130623;27;20035;-71
2022/05/09 12:34:12;;;;;;;3.95;1.48;;;24.70;52.30;;;;;;5138781;27;20065;-71
2022/05/09 12:36:37;;;;;;;5.05;1.38;;;24.70;52.40;;;;;;5151859;27;20081;-72
2022/05/09 12:39:42;;;;;;;4.20;1.20;;;24.40;52.70;;;;;;5151448;27;20070;-72
2022/05/09 12:42:24;;;;;;;2.50;1.10;;;24.80;52.70;;;;;;5100444;27;20058;-72
2022/05/09 12:44:52;;;;;;;2.67;1.13;;;24.80;53.00;;;;;;5151437;27;20417;-73
2022/05/09 12:47:29;;;;;;;3.53;1.42;;;24.90;53.00;;;;;;5151274;27;20054;-73
2022/05/09 12:50:09;;;;;;;2.95;1.20;;;25.00;52.30;;;;;;5151227;27;20050;-73
2022/05/09 12:52:40;;;;;;;4.07;1.23;;;25.10;52.60;;;;;;5151067;27;20043;-73
2022/05/09 12:57:51;;;;;;;5.57;1.40;;;25.10;52.50;;;;;;5151283;27;20057;-72
2022/05/09 13:00:24;;;;;;;2.95;1.10;;;25.40;53.10;;;;;;5151178;27;20049;-72
2022/05/09 13:02:50;;;;;;;3.70;1.00;;;25.40;52.50;;;;;;5141701;27;20439;-72
2022/05/09 13:05:17;;;;;;;3.72;1.00;;;25.70;52.60;;;;;;5125827;27;20039;-71
2022/05/09 13:07:58;;;;;;;4.65;1.15;;;25.70;52.40;;;;;;5137493;27;20061;-73
2022/05/09 13:10:24;;;;;;;2.05;0.93;;;25.50;52.00;;;;;;5137024;27;20046;-78
2022/05/09 13:12:57;;;;;;;2.25;0.90;;;25.40;51.50;;;;;;5141990;27;20061;-77
2022/05/09 13:15:23;;;;;;;5.63;1.65;;;25.50;52.30;;;;;;5135361;27;20039;-78
2022/05/09 13:17:57;;;;;;;3.25;1.25;;;25.60;52.40;;;;;;5147011;27;20071;-78
2022/05/09 13:20:28;;;;;;;2.75;1.30;;;25.60;51.70;;;;;;5135652;27;20077;-74
2022/05/09 13:23:01;;;;;;;2.63;1.10;;;25.60;52.80;;;;;;5146863;27;20043;-73
2022/05/09 13:25:34;;;;;;;2.83;1.23;;;25.70;52.60;;;;;;5131932;27;20416;-73